createdAt,value
2018-06-05T00:00:50.924Z,100751.64
2018-06-05T00:03:19.297Z,100754.14
2018-06-05T00:05:47.620Z,100754.33
2018-06-05T00:08:15.945Z,100754.30
2018-06-05T00:10:44.296Z,100759.03
2018-06-05T00:13:12.648Z,100755.89
2018-06-05T00:15:40.997Z,100757.11
2018-06-05T00:18:09.322Z,100755.64
2018-06-05T00:20:37.685Z,100758.22
2018-06-05T00:23:06.102Z,100755.92
2018-06-05T00:25:34.567Z,100753.30
2018-06-05T00:28:03.063Z,100758.21
2018-06-05T00:30:31.371Z,100758.08
2018-06-05T00:32:59.698Z,100757.85
2018-06-05T00:35:28.028Z,100753.38
2018-06-05T00:37:56.402Z,100751.90
2018-06-05T00:40:24.787Z,100755.69
2018-06-05T00:42:53.099Z,100757.73
2018-06-05T00:45:21.423Z,100759.27
2018-06-05T00:47:49.739Z,100763.80
2018-06-05T00:50:18.099Z,100762.13
2018-06-05T00:52:46.456Z,100769.22
2018-06-05T00:55:14.883Z,100770.94
2018-06-05T00:57:43.207Z,100764.92
2018-06-05T01:00:11.511Z,100770.70
2018-06-05T01:02:39.842Z,100767.70
2018-06-05T01:05:08.243Z,100768.72
2018-06-05T01:07:36.558Z,100770.91
2018-06-05T01:10:05.479Z,100775.44
2018-06-05T01:12:33.912Z,100771.98
2018-06-05T01:15:02.235Z,100765.97
2018-06-05T01:17:30.620Z,100767.81
2018-06-05T01:19:58.981Z,100767.53
2018-06-05T01:22:27.287Z,100773.59
2018-06-05T01:24:55.632Z,100774.98
2018-06-05T01:27:23.927Z,100782.37
2018-06-05T01:29:52.277Z,100775.03
2018-06-05T01:32:20.597Z,100775.72
2018-06-05T01:34:48.957Z,100773.36
2018-06-05T01:37:17.377Z,100781.09
2018-06-05T01:39:45.772Z,100781.73
2018-06-05T01:42:14.102Z,100786.96
2018-06-05T01:44:42.524Z,100790.66
2018-06-05T01:47:10.952Z,100785.52
2018-06-05T01:49:41.258Z,100786.02
2018-06-05T01:52:09.961Z,100793.05
2018-06-05T01:54:38.293Z,100796.16
2018-06-05T01:57:06.596Z,100798.34
2018-06-05T01:59:34.944Z,100799.49
2018-06-05T02:02:03.306Z,100802.50
2018-06-05T02:04:31.686Z,100803.47
2018-06-05T02:07:00.067Z,100801.44
2018-06-05T02:09:28.430Z,100802.45
2018-06-05T02:11:56.783Z,100803.98
2018-06-05T02:14:25.095Z,100803.98
2018-06-05T02:16:53.433Z,100796.44
2018-06-05T02:19:21.855Z,100801.80
2018-06-05T02:21:50.259Z,100804.48
2018-06-05T02:24:18.580Z,100805.50
2018-06-05T02:26:47.059Z,100808.19
2018-06-05T02:29:15.379Z,100808.19
2018-06-05T02:31:43.766Z,100805.32
2018-06-05T02:34:12.094Z,100806.66
2018-06-05T02:36:40.612Z,100809.66
2018-06-05T02:39:09.003Z,100810.17
2018-06-05T02:41:37.392Z,100810.36
2018-06-05T02:44:05.739Z,100803.66
2018-06-05T02:46:34.139Z,100808.84
2018-06-05T02:49:02.642Z,100806.80
2018-06-05T02:51:30.975Z,100802.27
2018-06-05T02:53:59.355Z,100798.75
2018-06-05T02:56:27.653Z,100800.73
2018-06-05T02:58:56.065Z,100794.03
2018-06-05T03:01:24.603Z,100798.67
2018-06-05T03:03:52.978Z,100800.34
2018-06-05T03:06:21.292Z,100808.06
2018-06-05T03:08:49.715Z,100806.43
2018-06-05T03:11:18.095Z,100812.30
2018-06-05T03:13:46.398Z,100803.93
2018-06-05T03:16:14.782Z,100809.73
2018-06-05T03:18:43.262Z,100807.04
2018-06-05T03:21:11.665Z,100804.87
2018-06-05T03:23:39.991Z,100806.21
2018-06-05T03:26:08.317Z,100808.52
2018-06-05T03:28:36.762Z,100802.70
2018-06-05T03:31:06.043Z,100809.36
2018-06-05T03:33:34.540Z,100812.55
2018-06-05T03:36:02.861Z,100818.80
2018-06-05T03:38:31.163Z,100815.49
2018-06-05T03:40:59.475Z,100821.19
2018-06-05T03:43:27.809Z,100817.67
2018-06-05T03:45:56.215Z,100821.47
2018-06-05T03:48:24.605Z,100829.02
2018-06-05T03:50:52.924Z,100826.33
2018-06-05T03:53:21.300Z,100822.52
2018-06-05T03:55:49.630Z,100824.48
2018-06-05T03:58:17.995Z,100825.82
2018-06-05T04:00:46.401Z,100823.14
2018-06-05T04:03:14.747Z,100817.77
2018-06-05T04:05:43.174Z,100827.16
2018-06-05T04:08:11.510Z,100832.20
2018-06-05T04:10:39.878Z,100830.68
2018-06-05T04:13:08.274Z,100833.17
2018-06-05T04:15:36.656Z,100833.83
2018-06-05T04:18:05.947Z,100830.63
2018-06-05T04:20:34.350Z,100831.78
2018-06-05T04:23:02.702Z,100831.09
2018-06-05T04:25:31.002Z,100835.12
2018-06-05T04:27:59.384Z,100835.28
2018-06-05T04:30:27.980Z,100829.41
2018-06-05T04:32:56.417Z,100833.63
2018-06-05T04:35:24.769Z,100839.14
2018-06-05T04:37:53.101Z,100835.62
2018-06-05T04:40:21.483Z,100840.16
2018-06-05T04:42:49.923Z,100838.81
2018-06-05T04:45:18.305Z,100835.44
2018-06-05T04:47:46.828Z,100840.81
2018-06-05T04:50:15.208Z,100839.82
2018-06-05T04:52:43.699Z,100844.49
2018-06-05T04:55:12.076Z,100844.81
2018-06-05T04:57:41.003Z,100858.42
2018-06-05T05:00:09.483Z,100853.89
2018-06-05T05:02:37.988Z,100856.25
2018-06-05T05:05:06.353Z,100852.87
2018-06-05T05:07:34.663Z,100845.06
2018-06-05T05:10:02.971Z,100850.80
2018-06-05T05:12:31.362Z,100852.23
2018-06-05T05:14:59.724Z,100862.78
2018-06-05T05:17:28.103Z,100858.75
2018-06-05T05:19:56.440Z,100858.56
2018-06-05T05:22:24.825Z,100856.20
2018-06-05T05:24:53.264Z,100859.86
2018-06-05T05:27:21.749Z,100860.66
2018-06-05T05:29:50.174Z,100862.08
2018-06-05T05:32:18.522Z,100848.06
2018-06-05T05:34:46.886Z,100844.73
2018-06-05T05:37:15.200Z,100839.74
2018-06-05T05:39:43.558Z,100843.66
2018-06-05T05:42:12.094Z,100838.80
2018-06-05T05:44:41.235Z,100850.38
2018-06-05T05:47:09.850Z,100845.34
2018-06-05T05:49:38.205Z,100849.22
2018-06-05T05:52:06.639Z,100854.58
2018-06-05T05:54:35.048Z,100854.58
2018-06-05T05:57:03.454Z,100857.09
2018-06-05T05:59:31.947Z,100860.94
2018-06-05T06:02:00.357Z,100860.28
2018-06-05T06:04:28.690Z,100857.92
2018-06-05T06:06:57.152Z,100865.31
2018-06-05T06:09:25.515Z,100859.77
2018-06-05T06:11:53.937Z,100863.60
2018-06-05T06:14:22.343Z,100856.91
2018-06-05T06:16:50.677Z,100864.48
2018-06-05T06:19:19.041Z,100871.34
2018-06-05T06:21:47.344Z,100867.16
2018-06-05T06:24:15.675Z,100867.64
2018-06-05T06:26:44.036Z,100867.48
2018-06-05T06:29:12.446Z,100870.92
2018-06-05T06:31:40.804Z,100877.96
2018-06-05T06:34:09.127Z,100878.28
2018-06-05T06:36:37.447Z,100879.91
2018-06-05T06:39:09.283Z,100878.19
2018-06-05T06:41:38.055Z,100873.79
2018-06-05T06:44:06.447Z,100879.16
2018-06-05T06:46:34.893Z,100887.78
2018-06-05T06:49:03.337Z,100880.38
2018-06-05T06:51:31.676Z,100878.66
2018-06-05T06:54:00.040Z,100876.43
2018-06-05T06:56:28.464Z,100877.05
2018-06-05T06:58:56.818Z,100875.52
2018-06-05T07:01:25.203Z,100873.80
2018-06-05T07:03:54.218Z,100884.11
2018-06-05T07:06:22.571Z,100882.07
2018-06-05T07:08:50.994Z,100889.08
2018-06-05T07:11:19.459Z,100884.76
2018-06-05T07:13:47.787Z,100882.36
2018-06-05T07:16:16.166Z,100881.34
2018-06-05T07:18:44.542Z,100883.97
2018-06-05T07:21:12.863Z,100882.58
2018-06-05T07:23:41.228Z,100888.45
2018-06-05T07:26:09.541Z,100882.77
2018-06-05T07:28:37.938Z,100885.58
2018-06-05T07:31:07.083Z,100890.13
2018-06-05T07:33:35.494Z,100888.91
2018-06-05T07:36:03.849Z,100887.48
2018-06-05T07:38:32.190Z,100888.27
2018-06-05T07:41:00.562Z,100884.50
2018-06-05T07:43:28.958Z,100884.63
2018-06-05T07:45:57.374Z,100886.48
2018-06-05T07:48:25.778Z,100892.05
2018-06-05T07:50:54.087Z,100889.03
2018-06-05T07:53:22.547Z,100892.42
2018-06-05T07:55:50.901Z,100893.77
2018-06-05T07:58:19.327Z,100894.27
2018-06-05T08:00:47.676Z,100893.06
2018-06-05T08:03:16.034Z,100886.98
2018-06-05T08:05:44.424Z,100893.00
2018-06-05T08:08:12.787Z,100884.95
2018-06-05T08:10:41.173Z,100884.12
2018-06-05T08:13:09.572Z,100874.26
2018-06-05T08:15:38.095Z,100885.40
2018-06-05T08:18:06.459Z,100885.85
2018-06-05T08:20:34.815Z,100892.83
2018-06-05T08:23:03.167Z,100891.43
2018-06-05T08:25:31.607Z,100892.55
2018-06-05T08:28:00.044Z,100890.08
2018-06-05T08:30:28.454Z,100894.41
2018-06-05T08:32:56.800Z,100893.38
2018-06-05T08:35:25.115Z,100893.70
2018-06-05T08:37:53.495Z,100893.38
2018-06-05T08:40:21.807Z,100890.08
2018-06-05T08:42:50.255Z,100897.92
2018-06-05T08:45:18.634Z,100905.80
2018-06-05T08:47:46.986Z,100901.25
2018-06-05T08:50:15.330Z,100902.59
2018-06-05T08:52:43.835Z,100904.20
2018-06-05T08:55:12.329Z,100904.97
2018-06-05T08:57:40.757Z,100909.64
2018-06-05T09:00:09.239Z,100911.73
2018-06-05T09:02:37.641Z,100913.65
2018-06-05T09:05:06.086Z,100910.77
2018-06-05T09:07:34.515Z,100912.75
2018-06-05T09:10:03.007Z,100911.83
2018-06-05T09:12:31.471Z,100911.63
2018-06-05T09:14:59.790Z,100910.92
2018-06-05T09:17:28.128Z,100907.92
2018-06-05T09:19:56.523Z,100908.43
2018-06-05T09:22:24.976Z,100923.03
2018-06-05T09:24:53.467Z,100923.03
2018-06-05T09:27:21.806Z,100922.33
2018-06-05T09:29:50.137Z,100921.30
2018-06-05T09:32:18.514Z,100922.52
2018-06-05T09:34:46.882Z,100922.70
2018-06-05T09:37:15.306Z,100932.25
2018-06-05T09:39:43.753Z,100931.34
2018-06-05T09:42:12.119Z,100928.66
2018-06-05T09:44:40.493Z,100927.31
2018-06-05T09:47:09.355Z,100921.94
2018-06-05T09:49:37.875Z,100920.53
2018-06-05T09:52:06.265Z,100920.23
2018-06-05T09:54:34.575Z,100928.68
2018-06-05T09:57:02.983Z,100929.45
2018-06-05T09:59:31.301Z,100923.80
2018-06-05T10:01:59.642Z,100918.47
2018-06-05T10:04:28.040Z,100918.17
2018-06-05T10:06:56.517Z,100921.36
2018-06-05T10:09:24.982Z,100922.40
2018-06-05T10:11:53.322Z,100918.41
2018-06-05T10:14:21.738Z,100915.71
2018-06-05T10:16:50.110Z,100919.12
2018-06-05T10:19:18.594Z,100911.95
2018-06-05T10:21:46.984Z,100911.44
2018-06-05T10:24:15.332Z,100915.16
2018-06-05T10:26:43.683Z,100917.13
2018-06-05T10:29:12.091Z,100907.52
2018-06-05T10:31:40.434Z,100909.58
2018-06-05T10:34:08.916Z,100906.18
2018-06-05T10:36:37.429Z,100905.91
2018-06-05T10:39:07.740Z,100898.78
2018-06-05T10:41:36.291Z,100893.07
2018-06-05T10:44:04.717Z,100894.98
2018-06-05T10:46:33.042Z,100899.81
2018-06-05T10:49:01.434Z,100894.83
2018-06-05T10:51:29.796Z,100890.81
2018-06-05T10:53:58.239Z,100889.86
2018-06-05T10:56:26.668Z,100886.58
2018-06-05T10:58:55.021Z,100888.44
2018-06-05T11:01:23.355Z,100892.22
2018-06-05T11:03:51.751Z,100898.23
2018-06-05T11:06:20.072Z,100886.55
2018-06-05T11:08:48.484Z,100893.91
2018-06-05T11:11:16.956Z,100890.02
2018-06-05T11:13:45.303Z,100887.42
2018-06-05T11:16:13.680Z,100888.61
2018-06-05T11:18:42.102Z,100884.47
2018-06-05T11:21:10.520Z,100882.38
2018-06-05T11:23:39.168Z,100888.95
2018-06-05T11:26:07.564Z,100885.31
2018-06-05T11:28:35.972Z,100889.06
2018-06-05T11:31:04.324Z,100883.92
2018-06-05T11:33:32.695Z,100876.86
2018-06-05T11:36:01.087Z,100873.61
2018-06-05T11:38:29.519Z,100865.10
2018-06-05T11:40:57.885Z,100867.44
2018-06-05T11:43:26.241Z,100878.48
2018-06-05T11:45:54.578Z,100861.53
2018-06-05T11:48:23.051Z,100868.05
2018-06-05T11:50:51.479Z,100865.94
2018-06-05T11:53:19.888Z,100862.05
2018-06-05T11:55:48.252Z,100857.98
2018-06-05T11:58:16.601Z,100861.59
2018-06-05T12:00:45.004Z,100852.20
2018-06-05T12:03:13.412Z,100852.56
2018-06-05T12:05:41.928Z,100843.77
2018-06-05T12:08:10.380Z,100853.33
2018-06-05T12:10:38.711Z,100852.70
2018-06-05T12:13:07.069Z,100849.09
2018-06-05T12:15:35.469Z,100850.26
2018-06-05T12:18:03.879Z,100843.03
2018-06-05T12:20:32.336Z,100840.09
2018-06-05T12:23:00.728Z,100833.47
2018-06-05T12:25:29.110Z,100835.64
2018-06-05T12:27:57.442Z,100834.29
2018-06-05T12:30:25.877Z,100830.83
2018-06-05T12:32:54.359Z,100820.21
2018-06-05T12:35:22.779Z,100822.89
2018-06-05T12:37:51.160Z,100823.95
2018-06-05T12:40:19.523Z,100826.09
2018-06-05T12:42:47.871Z,100822.98
2018-06-05T12:45:16.287Z,100819.44
2018-06-05T12:47:44.740Z,100816.97
2018-06-05T12:50:13.096Z,100818.02
2018-06-05T12:52:41.472Z,100817.17
2018-06-05T12:55:09.845Z,100816.24
2018-06-05T12:57:38.270Z,100811.05
2018-06-05T13:00:07.630Z,100811.92
2018-06-05T13:02:36.041Z,100817.89
2018-06-05T13:05:04.605Z,100809.97
2018-06-05T13:07:32.975Z,100818.50
2018-06-05T13:10:01.374Z,100809.93
2018-06-05T13:12:29.722Z,100817.45
2018-06-05T13:14:59.246Z,100817.27
2018-06-05T13:17:27.614Z,100815.38
2018-06-05T13:19:56.055Z,100812.12
2018-06-05T13:22:24.556Z,100806.47
2018-06-05T13:24:52.890Z,100793.39
2018-06-05T13:27:21.224Z,100803.91
2018-06-05T13:29:49.612Z,100799.34
2018-06-05T13:32:18.112Z,100805.50
2018-06-05T13:34:46.724Z,100802.74
2018-06-05T13:37:15.251Z,100796.78
2018-06-05T13:39:43.699Z,100799.50
2018-06-05T13:42:12.052Z,100796.30
2018-06-05T13:44:40.446Z,100787.03
2018-06-05T13:47:09.137Z,100794.94
2018-06-05T13:49:37.907Z,100789.41
2018-06-05T13:52:06.501Z,100786.02
2018-06-05T13:54:34.964Z,100784.25
2018-06-05T13:57:03.487Z,100779.41
2018-06-05T13:59:31.839Z,100779.88
2018-06-05T14:02:00.279Z,100786.59
2018-06-05T14:04:28.738Z,100767.76
2018-06-05T14:06:57.116Z,100780.88
2018-06-05T14:09:25.493Z,100777.91
2018-06-05T14:11:54.001Z,100778.61
2018-06-05T14:14:22.992Z,100776.84
2018-06-05T14:16:51.523Z,100775.02
2018-06-05T14:19:19.999Z,100770.45
2018-06-05T14:21:48.439Z,100781.62
2018-06-05T14:24:16.839Z,100771.04
2018-06-05T14:26:45.374Z,100769.58
2018-06-05T14:29:13.757Z,100761.31
2018-06-05T14:31:42.213Z,100764.19
2018-06-05T14:34:10.840Z,100759.00
2018-06-05T14:36:39.353Z,100759.47
2018-06-05T14:39:09.144Z,100745.82
2018-06-05T14:41:37.988Z,100753.88
2018-06-05T14:44:06.784Z,100749.92
2018-06-05T14:46:35.318Z,100742.68
2018-06-05T14:49:03.742Z,100739.06
2018-06-05T14:51:32.172Z,100745.41
2018-06-05T14:54:02.270Z,100748.81
2018-06-05T14:56:30.688Z,100748.83
2018-06-05T14:58:59.198Z,100746.48
2018-06-05T15:01:27.615Z,100741.53
2018-06-05T15:03:56.023Z,100743.09
2018-06-05T15:06:24.433Z,100750.36
2018-06-05T15:08:52.839Z,100752.13
2018-06-05T15:11:21.252Z,100734.28
2018-06-05T15:13:49.704Z,100741.98
2018-06-05T15:16:18.861Z,100737.91
2018-06-05T15:18:47.359Z,100733.07
2018-06-05T15:21:17.788Z,100729.00
2018-06-05T15:23:55.988Z,100731.42
2018-06-05T15:26:24.603Z,100732.06
2018-06-05T15:28:52.990Z,100730.17
2018-06-05T15:31:21.511Z,100734.16
2018-06-05T15:33:50.193Z,100734.03
2018-06-05T15:36:19.099Z,100737.92
2018-06-05T15:38:47.517Z,100726.17
2018-06-05T15:41:16.048Z,100728.95
2018-06-05T15:44:27.161Z,100718.16
2018-06-05T15:46:55.475Z,100718.85
2018-06-05T15:49:23.839Z,100715.95
2018-06-05T15:51:52.406Z,100717.92
2018-06-05T15:54:20.812Z,100719.06
2018-06-05T15:56:49.250Z,100711.59
2018-06-05T15:59:17.625Z,100713.06
2018-06-05T16:01:45.938Z,100712.05
2018-06-05T16:04:14.291Z,100711.72
2018-06-05T16:06:42.795Z,100710.36
2018-06-05T16:09:11.225Z,100701.03
2018-06-05T16:11:39.679Z,100705.19
2018-06-05T16:14:08.027Z,100709.27
2018-06-05T16:16:36.387Z,100708.52
2018-06-05T16:19:04.863Z,100708.94
2018-06-05T16:21:33.420Z,100705.45
2018-06-05T16:24:01.801Z,100698.63
2018-06-05T16:26:30.232Z,100702.77
2018-06-05T16:28:58.711Z,100701.41
2018-06-05T16:31:27.062Z,100703.09
2018-06-05T16:33:55.476Z,100697.42
2018-06-05T16:36:23.867Z,100697.98
2018-06-05T16:38:52.244Z,100696.06
2018-06-05T16:41:20.618Z,100696.91
2018-06-05T16:43:48.995Z,100693.63
2018-06-05T16:46:17.338Z,100692.53
2018-06-05T16:48:45.773Z,100696.08
2018-06-05T16:51:14.152Z,100693.91
2018-06-05T16:53:42.551Z,100696.08
2018-06-05T16:56:10.915Z,100694.70
2018-06-05T16:58:39.241Z,100691.96
2018-06-05T17:01:07.640Z,100691.41
2018-06-05T17:03:36.955Z,100688.08
2018-06-05T17:06:05.427Z,100692.16
2018-06-05T17:08:33.931Z,100682.80
2018-06-05T17:11:02.280Z,100684.25
2018-06-05T17:13:30.619Z,100685.77
2018-06-05T17:15:58.931Z,100686.60
2018-06-05T17:18:27.343Z,100683.77
2018-06-05T17:20:55.866Z,100679.53
2018-06-05T17:23:24.275Z,100681.54
2018-06-05T17:25:52.786Z,100676.78
2018-06-05T17:28:21.714Z,100680.39
2018-06-05T17:30:50.007Z,100684.86
2018-06-05T17:33:18.407Z,100680.27
2018-06-05T17:35:46.788Z,100683.50
2018-06-05T17:38:15.134Z,100676.54
2018-06-05T17:40:43.618Z,100677.91
2018-06-05T17:43:11.939Z,100680.97
2018-06-05T17:45:40.259Z,100683.33
2018-06-05T17:48:08.631Z,100682.09
2018-06-05T17:50:37.031Z,100684.45
2018-06-05T17:53:05.434Z,100685.56
2018-06-05T17:55:33.896Z,100681.61
2018-06-05T17:58:02.273Z,100685.59
2018-06-05T18:00:30.648Z,100684.73
2018-06-05T18:02:59.030Z,100684.40
2018-06-05T18:05:27.520Z,100684.09
2018-06-05T18:07:55.851Z,100679.91
2018-06-05T18:10:24.187Z,100694.86
2018-06-05T18:12:52.563Z,100698.71
2018-06-05T18:15:20.967Z,100694.70
2018-06-05T18:17:49.369Z,100690.86
2018-06-05T18:20:17.775Z,100692.76
2018-06-05T18:22:46.087Z,100693.77
2018-06-05T18:25:14.418Z,100702.07
2018-06-05T18:27:42.831Z,100702.69
2018-06-05T18:30:11.189Z,100702.66
2018-06-05T18:32:39.719Z,100702.81
2018-06-05T18:35:08.101Z,100703.92
2018-06-05T18:37:36.536Z,100705.27
2018-06-05T18:40:05.103Z,100706.16
2018-06-05T18:42:33.507Z,100703.84
2018-06-05T18:45:01.943Z,100703.36
2018-06-05T18:47:30.317Z,100704.85
2018-06-05T18:49:58.851Z,100702.23
2018-06-05T18:52:27.187Z,100703.97
2018-06-05T18:54:55.503Z,100707.54
2018-06-05T18:57:23.901Z,100704.66
2018-06-05T18:59:52.281Z,100712.09
2018-06-05T19:02:20.684Z,100708.78
2018-06-05T19:04:49.005Z,100713.83
2018-06-05T19:07:17.375Z,100711.28
2018-06-05T19:09:45.754Z,100714.01
2018-06-05T19:12:14.193Z,100722.17
2018-06-05T19:14:42.552Z,100718.34
2018-06-05T19:17:10.935Z,100722.94
2018-06-05T19:19:39.471Z,100726.77
2018-06-05T19:22:07.791Z,100726.81
2018-06-05T19:24:36.222Z,100734.41
2018-06-05T19:27:04.635Z,100740.54
2018-06-05T19:29:33.142Z,100748.48
2018-06-05T19:32:01.601Z,100748.59
2018-06-05T19:34:29.855Z,100744.86
2018-06-05T19:36:58.205Z,100747.61
2018-06-05T19:39:26.647Z,100754.77
2018-06-05T19:41:55.082Z,100757.89
2018-06-05T19:44:23.558Z,100761.31
2018-06-05T19:46:51.957Z,100761.45
2018-06-05T19:49:20.287Z,100764.57
2018-06-05T19:51:48.617Z,100768.41
2018-06-05T19:54:16.990Z,100770.83
2018-06-05T19:56:45.554Z,100770.73
2018-06-05T19:59:13.908Z,100778.27
2018-06-05T20:01:42.302Z,100781.58
2018-06-05T20:04:10.607Z,100781.20
2018-06-05T20:06:39.027Z,100783.99
2018-06-05T20:09:08.535Z,100783.89
2018-06-05T20:11:36.949Z,100777.45
2018-06-05T20:14:05.453Z,100782.56
2018-06-05T20:16:33.777Z,100779.97
2018-06-05T20:19:02.102Z,100779.86
2018-06-05T20:21:30.406Z,100784.83
2018-06-05T20:23:58.838Z,100787.41
2018-06-05T20:26:27.231Z,100793.33
2018-06-05T20:28:55.574Z,100789.52
2018-06-05T20:31:23.952Z,100795.52
2018-06-05T20:33:52.298Z,100796.55
2018-06-05T20:36:20.702Z,100792.41
2018-06-05T20:38:49.171Z,100790.31
2018-06-05T20:41:17.570Z,100793.34
2018-06-05T20:43:45.987Z,100793.64
2018-06-05T20:46:14.295Z,100796.94
2018-06-05T20:48:42.625Z,100808.98
2018-06-05T20:51:11.000Z,100802.30
2018-06-05T20:53:39.626Z,100806.95
2018-06-05T20:56:08.036Z,100809.52
2018-06-05T20:58:36.415Z,100810.16
2018-06-05T21:01:04.818Z,100807.75
2018-06-05T21:03:33.277Z,100808.55
2018-06-05T21:06:01.676Z,100810.02
2018-06-05T21:08:32.217Z,100809.15
2018-06-05T21:11:00.644Z,100816.48
2018-06-05T21:13:29.044Z,100813.90
2018-06-05T21:15:57.378Z,100813.98
2018-06-05T21:18:25.738Z,100824.31
2018-06-05T21:20:54.053Z,100817.46
2018-06-05T21:23:22.422Z,100812.19
2018-06-05T21:25:50.873Z,100819.52
2018-06-05T21:28:19.372Z,100822.91
2018-06-05T21:30:47.734Z,100823.63
2018-06-05T21:33:16.076Z,100829.08
2018-06-05T21:35:44.411Z,100825.83
2018-06-05T21:38:12.779Z,100826.09
2018-06-05T21:40:41.156Z,100823.70
2018-06-05T21:43:09.586Z,100816.35
2018-06-05T21:45:37.893Z,100814.37
2018-06-05T21:48:06.288Z,100819.11
2018-06-05T21:50:34.671Z,100818.80
2018-06-05T21:53:03.119Z,100827.77
2018-06-05T21:55:31.453Z,100819.06
2018-06-05T21:57:59.856Z,100817.30
2018-06-05T22:00:28.175Z,100814.49
2018-06-05T22:02:56.564Z,100815.71
2018-06-05T22:05:24.899Z,100817.64
2018-06-05T22:07:53.315Z,100826.60
2018-06-05T22:10:21.655Z,100817.93
2018-06-05T22:12:49.953Z,100818.64
2018-06-05T22:15:18.281Z,100816.66
2018-06-05T22:17:46.591Z,100812.30
2018-06-05T22:20:14.979Z,100811.03
2018-06-05T22:22:43.369Z,100812.75
2018-06-05T22:25:11.737Z,100820.41
2018-06-05T22:27:40.075Z,100817.46
2018-06-05T22:30:08.455Z,100816.69
2018-06-05T22:32:36.755Z,100821.81
2018-06-05T22:35:05.265Z,100824.88
2018-06-05T22:37:33.606Z,100816.69
2018-06-05T22:40:01.945Z,100820.91
2018-06-05T22:42:30.271Z,100808.98
2018-06-05T22:44:58.635Z,100821.99
2018-06-05T22:47:26.993Z,100818.38
2018-06-05T22:49:55.310Z,100811.53
2018-06-05T22:52:23.669Z,100813.58
2018-06-05T22:54:51.968Z,100811.33
2018-06-05T22:57:20.274Z,100813.59
2018-06-05T22:59:48.635Z,100803.93
2018-06-05T23:02:17.021Z,100809.03
2018-06-05T23:04:45.384Z,100804.77
2018-06-05T23:07:13.744Z,100811.22
2018-06-05T23:09:42.072Z,100814.60
2018-06-05T23:12:10.425Z,100818.62
2018-06-05T23:14:38.775Z,100817.66
2018-06-05T23:17:07.099Z,100817.72
2018-06-05T23:19:35.431Z,100817.11
2018-06-05T23:22:03.796Z,100821.83
2018-06-05T23:24:32.117Z,100822.52
2018-06-05T23:27:00.504Z,100819.19
2018-06-05T23:29:28.894Z,100824.23
2018-06-05T23:31:57.268Z,100823.27
2018-06-05T23:34:25.591Z,100826.33
2018-06-05T23:36:53.904Z,100822.01
2018-06-05T23:39:22.222Z,100825.39
2018-06-05T23:41:50.551Z,100823.55
2018-06-05T23:44:18.915Z,100827.58
2018-06-05T23:46:47.250Z,100821.89
2018-06-05T23:49:15.575Z,100832.63
2018-06-05T23:51:43.903Z,100825.27
2018-06-05T23:54:12.265Z,100815.60
2018-06-05T23:56:40.637Z,100815.49
2018-06-05T23:59:09.064Z,100817.53
